Weather observations for the past three days for
Las Vegas Municipal Airport
Metric (Imperial)
Date Time (mdt) Wind (kph) Vis. (km) Weather Sky Cond. Temperature (ºC) Relative Humidity Wind Chill (°C) Heat Index (°C) Pressure Precipitation (cm)
Air Dwpt 6 hour altimeter (cm) sea level (mb) 1 hr 3 hr 6 hr
Max. Min.
04 05:53 SE 6 16.09 NULL NULL 18.3 9.4 22.2 18.3 56% 76.73 1010.2
04 04:53 SW 11 16.09 NULL NULL 20 8.9 49% 76.71 1009.3
04 03:53 S 13 16.09 NULL NULL 20 8.9 49% 76.68 1008.8
04 02:53 S 13 16.09 NULL NULL 18.3 10.6 61% 76.68 1009.3
04 01:53 S 17 16.09 NULL NULL 19.4 9.4 53% 76.71 1009.5
04 00:53 W 9 11.27 Light Rain NULL 20.6 10 51% 76.71 1009.5
03 23:53 S 13 16.09 NULL NULL 20.6 7.8 28.3 20 44% 76.71 1009.7
03 22:53 S 19 16.09 NULL NULL 21.7 7.2 39% 76.71 1010.0
03 21:53 SE 15 16.09 NULL NULL 20.6 6.7 41% 76.73 1010.7
03 20:53 S 11 16.09 NULL NULL 22.2 6.7 37% 76.68 1010.3
03 19:53 S 13 16.09 NULL NULL 23.3 6.1 33% 76.63 1010.5
03 18:53 S 19 16.09 NULL NULL 26.1 6.1 28% 26 76.61 1010.2
03 17:53 S 20 G 41 16.09 Fair CLR 28.3 5.6 30 26.7 24% 27 76.61 1009.7
03 16:53 S 31 G 44 16.09 NULL NULL 28.9 5.6 23% 27 76.61 1009.7
03 15:53 S 22 G 37 16.09 Fair CLR 29.4 6.1 23% 28 76.63 1009.9
03 14:53 S 20 G 33 16.09 NULL NULL 28.9 5.6 23% 27 76.66 1010.2
03 13:53 S 17 G 35 16.09 Partly Cloudy SCT100 27.8 5.6 24% 27 76.71 1011.2
03 12:53 S 17 16.09 NULL NULL 27.8 5.6 24% 27 76.76 1011.2
03 11:53 Vrbl 9 G 35 16.09 NULL NULL 27.2 5.6 27.8 13.3 25% 26 76.84 1011.6
03 10:53 Calm 16.09 NULL NULL 25 6.1 30% 25 76.86 1012.3
03 09:53 NE 9 16.09 NULL NULL 23.9 7.2 34% 25 76.84 1012.4
03 08:53 NW 9 16.09 NULL NULL 21.1 7.2 41% 76.86 1013.4
03 07:53 N 7 16.09 NULL NULL 16.1 6.1 52% 76.84 1013.8
03 06:53 NW 11 16.09 NULL NULL 13.9 3.9 51% 76.78 1012.8
03 05:53 N 11 16.09 NULL NULL 13.3 3.9 18.9 12.2 53% 76.76 1012.0
03 04:53 N 13 16.09 NULL NULL 12.8 4.4 57% 76.76 1011.9
03 03:53 N 15 16.09 NULL NULL 12.8 4.4 57% 76.76 1012.0
03 02:53 N 13 16.09 NULL NULL 13.9 5 55% 76.73 1011.3
03 01:53 N 9 16.09 NULL NULL 14.4 5.6 56% 76.78 1011.7
03 00:53 Calm 16.09 NULL NULL 16.7 5 46% 76.78 1011.9
02 23:53 SW 7 16.09 NULL NULL 18.9 3.9 27.8 18.3 37% 76.81 1011.4
02 22:53 SW 9 16.09 NULL NULL 20 4.4 36% 76.78 1011.3
02 21:53 S 11 16.09 NULL NULL 20 3.9 35% 76.81 1012.1
02 20:53 S 13 16.09 Fair CLR 20 3.9 35% 76.76 1012.4
02 19:53 S 15 16.09 NULL NULL 21.7 3.9 31% 76.73 1012.2
02 18:53 S 22 16.09 NULL NULL 26.1 2.8 22% 26 76.71 1011.6
02 17:53 S 28 16.09 NULL NULL 27.8 2.8 29.4 25.6 20% 27 76.71 1011.3
02 16:53 SW 26 G 35 16.09 NULL NULL 28.3 2.2 19% 27 76.73 1011.0
02 15:53 SW 37 G 50 16.09 Fair and Breezy CLR 28.3 2.2 19% 27 76.76 1011.4
02 14:53 S 35 G 50 16.09 Breezy NULL 29.4 3.9 20% 28 76.78 1011.2
02 13:53 S 19 16.09 NULL NULL 28.3 3.9 21% 27 76.84 1012.2
02 12:53 S 15 16.09 NULL NULL 26.7 6.7 28% 26 76.89 1013.6
02 11:53 W 11 16.09 A Few Clouds FEW095 26.1 7.2 26.1 12.8 30% 26 76.96 1014.2
02 10:53 Calm 16.09 NULL NULL 25 7.2 32% 25 76.99 1015.3
02 09:53 NW 9 16.09 NULL NULL 23.3 10 43% 76.99 1015.1
02 08:53 N 7 16.09 NULL NULL 19.4 12.2 63% 76.96 1015.4
02 07:53 W 7 16.09 NULL NULL 16.1 12.8 81% 76.96 1016.1
02 06:53 SE 15 16.09 NULL NULL 13.3 11.1 87% 76.94 1015.5
02 05:53 SE 17 16.09 NULL NULL 13.3 11.1 16.7 13.3 87% 76.91 1014.5
02 04:53 SE 19 16.09 NULL NULL 15 11.7 81% 76.89 1013.9
02 03:53 SE 13 16.09 A Few Clouds FEW120 15 11.7 81% 76.89 1013.9
02 02:53 E 6 16.09 NULL NULL 16.1 12.2 78% 76.91 1013.7
02 01:53 N 6 16.09 NULL NULL 15.6 12.2 80% 76.94 1014.6
02 00:53 N 6 16.09 NULL NULL 15 11.7 81% 76.94 1014.8
01 23:53 S 7 16.09 NULL NULL 16.7 11.1 25.6 15 70% 76.94 1014.6
01 22:53 SE 13 16.09 NULL NULL 15.6 11.7 78% 76.94 1015.6
01 21:53 SE 20 16.09 NULL NULL 17.2 11.7 70% 76.96 1015.9
01 20:53 E 22 16.09 NULL NULL 18.9 11.7 63% 76.89 1015.1
01 19:53 E 30 G 41 16.09 NULL NULL 19.4 12.2 63% 76.86 1014.7
01 18:53 SE 33 G 50 16.09 Thunderstorm in Vicinity and Breezy NULL 21.7 10.6 49% 76.84 1014.2
01 17:53 SW 22 16.09 NULL NULL 25.6 8.9 27.2 23.3 35% 26 76.78 1012.9
01 16:53 SW 19 16.09 Mostly Cloudy SCT075 SCT090 BKN110 25.6 8.9 35% 26 76.78 1012.9
01 15:53 S 13 16.09 Overcast BKN075 OVC095 25 8.3 35% 26 76.81 1012.8
01 14:53 S 17 G 31 16.09 NULL NULL 25.6 8.3 33% 26 76.86 1013.5
01 13:53 S 20 G 37 16.09 NULL NULL 24.4 7.8 35% 25 76.91 1014.5
01 12:53 S 17 G 30 16.09 NULL NULL 24.4 8.9 37% 25 76.96 1015.2
01 11:53 Vrbl 6 16.09 NULL NULL 23.3 9.4 23.9 12.8 41% 77.04 1016.0
01 10:53 SW 11 16.09 NULL NULL 21.1 11.7 55% 77.04 1016.6
01 09:53 Calm 16.09 Mostly Cloudy SCT090 BKN120 18.3 11.1 63% 77.01 1017.0
01 08:53 N 7 16.09 Fair CLR 16.1 12.2 78% 76.99 1016.3
01 07:53 N 11 16.09 Fair CLR 14.4 11.7 84% 76.99 1016.5
01 06:53 N 11 16.09 Fair CLR 13.3 11.1 87% 76.96 1016.3
Date Time (mdt) Wind (kph) Vis. (km) Weather Sky Cond. Air Dwpt Max. Min. Relative Humidity Wind Chill (°C) Heat Index (°C) altimeter (cm) sea level (mb) 1 hr 3 hr 6 hr
6 hour
Temperature (ºC) Pressure Precipitation (cm)